sensor_id;sensor_type;location;lat;lon;timestamp;P1;durP1;ratioP1;P2;durP2;ratioP2
52534;SDS011;38443;53.164;5.802;2022-08-20T00:01:44;12.30;;;4.88;;
52534;SDS011;38443;53.164;5.802;2022-08-20T00:04:11;6.75;;;4.28;;
52534;SDS011;38443;53.164;5.802;2022-08-20T00:06:37;7.05;;;4.20;;
52534;SDS011;38443;53.164;5.802;2022-08-20T00:09:04;8.75;;;4.43;;
52534;SDS011;38443;53.164;5.802;2022-08-20T00:11:30;10.52;;;4.70;;
52534;SDS011;38443;53.164;5.802;2022-08-20T00:13:59;8.32;;;4.13;;
52534;SDS011;38443;53.164;5.802;2022-08-20T00:16:28;7.57;;;4.35;;
52534;SDS011;38443;53.164;5.802;2022-08-20T00:18:57;9.25;;;4.57;;
52534;SDS011;38443;53.164;5.802;2022-08-20T00:21:23;11.45;;;5.50;;
52534;SDS011;38443;53.164;5.802;2022-08-20T00:23:49;9.80;;;5.55;;
52534;SDS011;38443;53.164;5.802;2022-08-20T00:26:17;11.32;;;5.72;;
52534;SDS011;38443;53.164;5.802;2022-08-20T00:28:44;9.07;;;5.45;;
52534;SDS011;38443;53.164;5.802;2022-08-20T00:31:11;9.45;;;5.10;;
52534;SDS011;38443;53.164;5.802;2022-08-20T00:33:39;10.40;;;5.93;;
52534;SDS011;38443;53.164;5.802;2022-08-20T00:36:05;10.23;;;5.65;;
52534;SDS011;38443;53.164;5.802;2022-08-20T00:38:33;11.77;;;5.60;;
52534;SDS011;38443;53.164;5.802;2022-08-20T00:41:00;13.60;;;5.32;;
52534;SDS011;38443;53.164;5.802;2022-08-20T00:43:34;11.77;;;5.80;;
52534;SDS011;38443;53.164;5.802;2022-08-20T00:46:04;10.07;;;5.40;;
52534;SDS011;38443;53.164;5.802;2022-08-20T00:48:33;13.25;;;5.13;;
52534;SDS011;38443;53.164;5.802;2022-08-20T00:51:07;11.23;;;5.47;;
52534;SDS011;38443;53.164;5.802;2022-08-20T00:53:40;10.02;;;5.75;;
52534;SDS011;38443;53.164;5.802;2022-08-20T00:56:07;9.43;;;5.13;;
52534;SDS011;38443;53.164;5.802;2022-08-20T00:58:35;11.07;;;5.38;;
52534;SDS011;38443;53.164;5.802;2022-08-20T01:01:01;16.95;;;5.68;;
52534;SDS011;38443;53.164;5.802;2022-08-20T01:03:29;11.65;;;5.22;;
52534;SDS011;38443;53.164;5.802;2022-08-20T01:05:55;9.32;;;5.20;;
52534;SDS011;38443;53.164;5.802;2022-08-20T01:08:21;11.90;;;5.72;;
52534;SDS011;38443;53.164;5.802;2022-08-20T01:10:48;11.02;;;5.35;;
52534;SDS011;38443;53.164;5.802;2022-08-20T01:13:17;10.75;;;6.30;;
52534;SDS011;38443;53.164;5.802;2022-08-20T01:15:47;7.32;;;5.30;;
52534;SDS011;38443;53.164;5.802;2022-08-20T01:18:19;9.20;;;5.78;;
52534;SDS011;38443;53.164;5.802;2022-08-20T01:20:56;10.68;;;6.53;;
52534;SDS011;38443;53.164;5.802;2022-08-20T01:28:33;9.85;;;5.70;;
52534;SDS011;38443;53.164;5.802;2022-08-20T01:31:26;8.07;;;5.40;;
52534;SDS011;38443;53.164;5.802;2022-08-20T01:33:56;12.05;;;5.47;;
52534;SDS011;38443;53.164;5.802;2022-08-20T01:36:28;12.75;;;5.95;;
52534;SDS011;38443;53.164;5.802;2022-08-20T01:38:58;9.77;;;5.30;;
52534;SDS011;38443;53.164;5.802;2022-08-20T01:41:31;8.25;;;5.03;;
52534;SDS011;38443;53.164;5.802;2022-08-20T01:44:09;11.65;;;5.32;;
52534;SDS011;38443;53.164;5.802;2022-08-20T01:46:37;8.75;;;4.93;;
52534;SDS011;38443;53.164;5.802;2022-08-20T01:49:10;12.05;;;5.90;;
52534;SDS011;38443;53.164;5.802;2022-08-20T01:51:40;9.52;;;5.13;;
52534;SDS011;38443;53.164;5.802;2022-08-20T01:54:06;9.27;;;4.22;;
52534;SDS011;38443;53.164;5.802;2022-08-20T01:56:32;5.88;;;3.10;;
52534;SDS011;38443;53.164;5.802;2022-08-20T01:59:00;7.50;;;3.05;;
52534;SDS011;38443;53.164;5.802;2022-08-20T02:01:31;9.68;;;3.10;;
52534;SDS011;38443;53.164;5.802;2022-08-20T02:04:02;11.57;;;3.05;;
52534;SDS011;38443;53.164;5.802;2022-08-20T02:06:30;9.45;;;3.25;;
52534;SDS011;38443;53.164;5.802;2022-08-20T02:08:59;7.47;;;3.45;;
52534;SDS011;38443;53.164;5.802;2022-08-20T02:11:26;9.10;;;2.72;;
52534;SDS011;38443;53.164;5.802;2022-08-20T02:13:53;9.77;;;3.08;;
52534;SDS011;38443;53.164;5.802;2022-08-20T02:16:20;17.60;;;5.00;;
52534;SDS011;38443;53.164;5.802;2022-08-20T02:18:53;7.20;;;2.83;;
52534;SDS011;38443;53.164;5.802;2022-08-20T02:21:22;6.85;;;3.28;;
52534;SDS011;38443;53.164;5.802;2022-08-20T02:23:49;8.15;;;2.65;;
52534;SDS011;38443;53.164;5.802;2022-08-20T02:26:15;7.10;;;2.90;;
52534;SDS011;38443;53.164;5.802;2022-08-20T02:28:44;9.48;;;3.50;;
52534;SDS011;38443;53.164;5.802;2022-08-20T02:31:12;6.28;;;2.67;;
52534;SDS011;38443;53.164;5.802;2022-08-20T02:33:54;11.55;;;3.00;;
52534;SDS011;38443;53.164;5.802;2022-08-20T02:39:48;12.15;;;2.92;;
52534;SDS011;38443;53.164;5.802;2022-08-20T02:42:14;5.55;;;2.80;;
52534;SDS011;38443;53.164;5.802;2022-08-20T02:44:39;7.78;;;3.65;;
52534;SDS011;38443;53.164;5.802;2022-08-20T02:47:06;6.65;;;2.85;;
52534;SDS011;38443;53.164;5.802;2022-08-20T02:49:32;7.40;;;3.00;;
52534;SDS011;38443;53.164;5.802;2022-08-20T02:51:58;6.65;;;3.15;;
52534;SDS011;38443;53.164;5.802;2022-08-20T02:54:24;7.55;;;3.08;;
52534;SDS011;38443;53.164;5.802;2022-08-20T02:56:49;9.80;;;4.00;;
52534;SDS011;38443;53.164;5.802;2022-08-20T02:59:16;6.90;;;3.00;;
52534;SDS011;38443;53.164;5.802;2022-08-20T03:01:42;9.98;;;3.03;;
52534;SDS011;38443;53.164;5.802;2022-08-20T03:04:08;7.80;;;3.97;;
52534;SDS011;38443;53.164;5.802;2022-08-20T03:06:35;6.72;;;3.10;;
52534;SDS011;38443;53.164;5.802;2022-08-20T03:09:00;7.00;;;2.92;;
52534;SDS011;38443;53.164;5.802;2022-08-20T03:11:30;12.00;;;3.35;;
52534;SDS011;38443;53.164;5.802;2022-08-20T03:13:56;10.52;;;3.45;;
52534;SDS011;38443;53.164;5.802;2022-08-20T03:16:21;6.28;;;3.00;;
52534;SDS011;38443;53.164;5.802;2022-08-20T03:18:47;8.10;;;3.35;;
52534;SDS011;38443;53.164;5.802;2022-08-20T03:21:12;8.90;;;3.45;;
52534;SDS011;38443;53.164;5.802;2022-08-20T03:23:38;8.73;;;2.85;;
52534;SDS011;38443;53.164;5.802;2022-08-20T03:26:08;9.25;;;3.55;;
52534;SDS011;38443;53.164;5.802;2022-08-20T03:28:36;8.98;;;3.40;;
52534;SDS011;38443;53.164;5.802;2022-08-20T03:31:03;8.77;;;3.10;;
52534;SDS011;38443;53.164;5.802;2022-08-20T03:33:29;6.63;;;2.55;;
52534;SDS011;38443;53.164;5.802;2022-08-20T03:35:55;9.43;;;3.08;;
52534;SDS011;38443;53.164;5.802;2022-08-20T03:38:22;11.70;;;3.00;;
52534;SDS011;38443;53.164;5.802;2022-08-20T03:40:49;9.73;;;3.13;;
52534;SDS011;38443;53.164;5.802;2022-08-20T03:43:15;8.43;;;3.00;;
52534;SDS011;38443;53.164;5.802;2022-08-20T03:45:43;6.18;;;2.80;;
52534;SDS011;38443;53.164;5.802;2022-08-20T03:48:18;10.95;;;3.00;;
52534;SDS011;38443;53.164;5.802;2022-08-20T03:50:46;11.23;;;3.72;;
52534;SDS011;38443;53.164;5.802;2022-08-20T03:53:14;8.60;;;2.92;;
52534;SDS011;38443;53.164;5.802;2022-08-20T03:55:40;9.45;;;3.55;;
52534;SDS011;38443;53.164;5.802;2022-08-20T03:58:08;5.90;;;3.45;;
52534;SDS011;38443;53.164;5.802;2022-08-20T04:00:36;8.90;;;3.67;;
52534;SDS011;38443;53.164;5.802;2022-08-20T04:03:04;9.50;;;4.28;;
52534;SDS011;38443;53.164;5.802;2022-08-20T04:05:32;13.25;;;3.53;;
52534;SDS011;38443;53.164;5.802;2022-08-20T04:08:00;8.93;;;4.70;;
52534;SDS011;38443;53.164;5.802;2022-08-20T04:10:28;8.07;;;3.55;;
52534;SDS011;38443;53.164;5.802;2022-08-20T04:12:54;12.30;;;4.65;;
52534;SDS011;38443;53.164;5.802;2022-08-20T04:15:21;7.13;;;3.47;;
52534;SDS011;38443;53.164;5.802;2022-08-20T04:17:48;9.48;;;3.55;;
52534;SDS011;38443;53.164;5.802;2022-08-20T04:20:16;7.97;;;3.88;;
52534;SDS011;38443;53.164;5.802;2022-08-20T04:22:46;7.47;;;3.90;;
52534;SDS011;38443;53.164;5.802;2022-08-20T04:25:12;12.95;;;3.38;;
52534;SDS011;38443;53.164;5.802;2022-08-20T04:27:38;6.10;;;4.05;;
52534;SDS011;38443;53.164;5.802;2022-08-20T04:30:05;5.50;;;3.70;;
52534;SDS011;38443;53.164;5.802;2022-08-20T04:32:32;9.38;;;3.85;;
52534;SDS011;38443;53.164;5.802;2022-08-20T04:35:01;7.50;;;3.60;;
52534;SDS011;38443;53.164;5.802;2022-08-20T04:37:31;11.13;;;4.15;;
52534;SDS011;38443;53.164;5.802;2022-08-20T04:39:57;11.48;;;4.50;;
52534;SDS011;38443;53.164;5.802;2022-08-20T04:42:56;7.47;;;3.65;;
52534;SDS011;38443;53.164;5.802;2022-08-20T04:45:23;10.40;;;3.95;;
52534;SDS011;38443;53.164;5.802;2022-08-20T04:47:49;10.77;;;5.25;;
52534;SDS011;38443;53.164;5.802;2022-08-20T04:50:15;6.43;;;3.83;;
52534;SDS011;38443;53.164;5.802;2022-08-20T04:52:42;7.85;;;3.50;;
52534;SDS011;38443;53.164;5.802;2022-08-20T04:55:07;8.55;;;3.58;;
52534;SDS011;38443;53.164;5.802;2022-08-20T04:57:39;8.27;;;3.60;;
52534;SDS011;38443;53.164;5.802;2022-08-20T05:00:06;9.55;;;4.32;;
52534;SDS011;38443;53.164;5.802;2022-08-20T05:02:35;14.70;;;4.28;;
52534;SDS011;38443;53.164;5.802;2022-08-20T05:05:02;5.88;;;3.83;;
52534;SDS011;38443;53.164;5.802;2022-08-20T05:07:36;11.60;;;4.15;;
52534;SDS011;38443;53.164;5.802;2022-08-20T05:10:04;8.15;;;4.35;;
52534;SDS011;38443;53.164;5.802;2022-08-20T05:12:31;7.80;;;3.90;;
52534;SDS011;38443;53.164;5.802;2022-08-20T05:14:56;8.35;;;3.63;;
52534;SDS011;38443;53.164;5.802;2022-08-20T05:17:22;8.13;;;3.95;;
52534;SDS011;38443;53.164;5.802;2022-08-20T05:19:50;7.18;;;4.55;;
52534;SDS011;38443;53.164;5.802;2022-08-20T05:22:16;10.50;;;4.38;;
52534;SDS011;38443;53.164;5.802;2022-08-20T05:24:45;10.45;;;4.85;;
52534;SDS011;38443;53.164;5.802;2022-08-20T05:27:17;6.82;;;4.00;;
52534;SDS011;38443;53.164;5.802;2022-08-20T05:29:43;6.65;;;3.85;;
52534;SDS011;38443;53.164;5.802;2022-08-20T05:32:08;9.38;;;4.35;;
52534;SDS011;38443;53.164;5.802;2022-08-20T05:34:35;9.25;;;4.55;;
52534;SDS011;38443;53.164;5.802;2022-08-20T05:37:01;9.05;;;4.00;;
52534;SDS011;38443;53.164;5.802;2022-08-20T05:39:28;8.23;;;3.92;;
52534;SDS011;38443;53.164;5.802;2022-08-20T05:41:53;10.40;;;4.35;;
52534;SDS011;38443;53.164;5.802;2022-08-20T05:44:21;7.43;;;4.20;;
52534;SDS011;38443;53.164;5.802;2022-08-20T05:46:47;11.82;;;4.60;;
52534;SDS011;38443;53.164;5.802;2022-08-20T05:49:14;10.52;;;3.88;;
52534;SDS011;38443;53.164;5.802;2022-08-20T05:51:42;12.70;;;4.13;;
52534;SDS011;38443;53.164;5.802;2022-08-20T05:54:10;8.55;;;5.40;;
52534;SDS011;38443;53.164;5.802;2022-08-20T05:56:37;7.75;;;4.75;;
52534;SDS011;38443;53.164;5.802;2022-08-20T05:59:04;6.45;;;3.65;;
52534;SDS011;38443;53.164;5.802;2022-08-20T06:01:32;8.55;;;4.93;;
52534;SDS011;38443;53.164;5.802;2022-08-20T06:03:59;6.07;;;3.72;;
52534;SDS011;38443;53.164;5.802;2022-08-20T06:06:43;10.95;;;4.20;;
52534;SDS011;38443;53.164;5.802;2022-08-20T06:09:10;5.80;;;3.83;;
52534;SDS011;38443;53.164;5.802;2022-08-20T06:11:35;5.57;;;3.58;;
52534;SDS011;38443;53.164;5.802;2022-08-20T06:14:00;8.98;;;4.20;;
52534;SDS011;38443;53.164;5.802;2022-08-20T06:16:27;7.75;;;4.00;;
52534;SDS011;38443;53.164;5.802;2022-08-20T06:18:52;6.47;;;4.43;;
52534;SDS011;38443;53.164;5.802;2022-08-20T06:21:17;7.70;;;4.00;;
52534;SDS011;38443;53.164;5.802;2022-08-20T06:23:43;10.05;;;3.63;;
52534;SDS011;38443;53.164;5.802;2022-08-20T06:26:09;8.70;;;3.58;;
52534;SDS011;38443;53.164;5.802;2022-08-20T06:28:35;7.82;;;3.58;;
52534;SDS011;38443;53.164;5.802;2022-08-20T06:31:01;11.55;;;4.22;;
52534;SDS011;38443;53.164;5.802;2022-08-20T06:33:27;6.95;;;3.60;;
52534;SDS011;38443;53.164;5.802;2022-08-20T06:35:52;8.60;;;3.78;;
52534;SDS011;38443;53.164;5.802;2022-08-20T06:38:22;8.65;;;4.40;;
52534;SDS011;38443;53.164;5.802;2022-08-20T06:40:48;8.05;;;5.15;;
52534;SDS011;38443;53.164;5.802;2022-08-20T06:43:14;10.63;;;4.22;;
52534;SDS011;38443;53.164;5.802;2022-08-20T06:45:40;9.98;;;3.40;;
52534;SDS011;38443;53.164;5.802;2022-08-20T06:48:06;6.60;;;2.90;;
52534;SDS011;38443;53.164;5.802;2022-08-20T06:50:35;5.82;;;3.38;;
52534;SDS011;38443;53.164;5.802;2022-08-20T06:53:06;8.20;;;3.35;;
52534;SDS011;38443;53.164;5.802;2022-08-20T06:55:33;6.80;;;3.15;;
52534;SDS011;38443;53.164;5.802;2022-08-20T06:58:03;5.25;;;3.00;;
52534;SDS011;38443;53.164;5.802;2022-08-20T07:00:35;5.72;;;2.58;;
52534;SDS011;38443;53.164;5.802;2022-08-20T07:03:04;7.68;;;3.28;;
52534;SDS011;38443;53.164;5.802;2022-08-20T07:05:31;4.75;;;2.63;;
52534;SDS011;38443;53.164;5.802;2022-08-20T07:07:58;4.57;;;2.88;;
52534;SDS011;38443;53.164;5.802;2022-08-20T07:10:25;8.95;;;2.95;;
52534;SDS011;38443;53.164;5.802;2022-08-20T07:12:51;7.97;;;2.97;;
52534;SDS011;38443;53.164;5.802;2022-08-20T07:15:18;6.60;;;3.03;;
52534;SDS011;38443;53.164;5.802;2022-08-20T07:17:49;5.75;;;2.53;;
52534;SDS011;38443;53.164;5.802;2022-08-20T07:20:19;9.38;;;4.50;;
52534;SDS011;38443;53.164;5.802;2022-08-20T07:22:45;9.20;;;2.47;;
52534;SDS011;38443;53.164;5.802;2022-08-20T07:25:14;5.22;;;2.35;;
52534;SDS011;38443;53.164;5.802;2022-08-20T07:27:41;7.50;;;2.60;;
52534;SDS011;38443;53.164;5.802;2022-08-20T07:30:08;5.75;;;2.25;;
52534;SDS011;38443;53.164;5.802;2022-08-20T07:32:58;3.85;;;2.05;;
52534;SDS011;38443;53.164;5.802;2022-08-20T07:35:24;7.28;;;2.40;;
52534;SDS011;38443;53.164;5.802;2022-08-20T07:37:49;6.35;;;2.40;;
52534;SDS011;38443;53.164;5.802;2022-08-20T07:40:28;6.63;;;2.40;;
52534;SDS011;38443;53.164;5.802;2022-08-20T07:42:56;5.05;;;1.92;;
52534;SDS011;38443;53.164;5.802;2022-08-20T07:45:24;5.75;;;2.63;;
52534;SDS011;38443;53.164;5.802;2022-08-20T07:47:51;4.35;;;2.03;;
52534;SDS011;38443;53.164;5.802;2022-08-20T07:50:19;6.30;;;2.35;;
52534;SDS011;38443;53.164;5.802;2022-08-20T07:52:47;12.80;;;2.58;;
52534;SDS011;38443;53.164;5.802;2022-08-20T07:55:16;7.20;;;2.10;;
52534;SDS011;38443;53.164;5.802;2022-08-20T07:57:43;6.47;;;2.65;;
52534;SDS011;38443;53.164;5.802;2022-08-20T08:00:10;8.52;;;2.00;;
52534;SDS011;38443;53.164;5.802;2022-08-20T08:02:37;6.80;;;2.42;;
52534;SDS011;38443;53.164;5.802;2022-08-20T08:05:04;4.95;;;2.10;;
52534;SDS011;38443;53.164;5.802;2022-08-20T08:07:30;5.53;;;2.22;;
52534;SDS011;38443;53.164;5.802;2022-08-20T08:09:57;5.72;;;2.20;;
52534;SDS011;38443;53.164;5.802;2022-08-20T08:12:25;5.05;;;2.08;;
52534;SDS011;38443;53.164;5.802;2022-08-20T08:14:56;5.28;;;2.10;;
52534;SDS011;38443;53.164;5.802;2022-08-20T08:17:22;7.07;;;2.30;;
52534;SDS011;38443;53.164;5.802;2022-08-20T08:19:48;7.72;;;2.53;;
52534;SDS011;38443;53.164;5.802;2022-08-20T08:22:15;6.75;;;2.10;;
52534;SDS011;38443;53.164;5.802;2022-08-20T08:24:43;6.45;;;2.30;;
52534;SDS011;38443;53.164;5.802;2022-08-20T08:27:11;7.78;;;2.00;;
52534;SDS011;38443;53.164;5.802;2022-08-20T08:29:37;6.00;;;2.45;;
52534;SDS011;38443;53.164;5.802;2022-08-20T08:32:03;7.82;;;2.08;;
52534;SDS011;38443;53.164;5.802;2022-08-20T08:34:32;6.75;;;2.47;;
52534;SDS011;38443;53.164;5.802;2022-08-20T08:37:00;7.18;;;2.60;;
52534;SDS011;38443;53.164;5.802;2022-08-20T08:39:27;8.90;;;2.80;;
52534;SDS011;38443;53.164;5.802;2022-08-20T08:41:54;5.68;;;3.13;;
52534;SDS011;38443;53.164;5.802;2022-08-20T08:44:25;7.10;;;2.35;;
52534;SDS011;38443;53.164;5.802;2022-08-20T08:46:55;9.30;;;2.40;;
52534;SDS011;38443;53.164;5.802;2022-08-20T08:49:28;9.02;;;2.30;;
52534;SDS011;38443;53.164;5.802;2022-08-20T08:54:28;4.88;;;2.00;;
52534;SDS011;38443;53.164;5.802;2022-08-20T08:56:55;8.68;;;2.15;;
52534;SDS011;38443;53.164;5.802;2022-08-20T08:59:21;6.53;;;2.13;;
52534;SDS011;38443;53.164;5.802;2022-08-20T09:01:57;6.10;;;1.90;;
52534;SDS011;38443;53.164;5.802;2022-08-20T09:04:28;7.72;;;2.40;;
52534;SDS011;38443;53.164;5.802;2022-08-20T09:07:00;5.25;;;2.53;;
52534;SDS011;38443;53.164;5.802;2022-08-20T09:09:29;7.35;;;3.03;;
52534;SDS011;38443;53.164;5.802;2022-08-20T09:12:01;8.77;;;2.45;;
52534;SDS011;38443;53.164;5.802;2022-08-20T09:14:29;7.57;;;2.30;;
52534;SDS011;38443;53.164;5.802;2022-08-20T09:16:55;4.22;;;2.10;;
52534;SDS011;38443;53.164;5.802;2022-08-20T09:19:20;4.40;;;2.33;;
52534;SDS011;38443;53.164;5.802;2022-08-20T09:21:46;4.18;;;1.80;;
52534;SDS011;38443;53.164;5.802;2022-08-20T09:24:11;6.35;;;1.92;;
52534;SDS011;38443;53.164;5.802;2022-08-20T09:26:36;6.10;;;2.15;;
52534;SDS011;38443;53.164;5.802;2022-08-20T09:29:02;6.10;;;2.20;;
52534;SDS011;38443;53.164;5.802;2022-08-20T09:31:27;7.00;;;2.05;;
52534;SDS011;38443;53.164;5.802;2022-08-20T09:33:53;6.90;;;2.60;;
52534;SDS011;38443;53.164;5.802;2022-08-20T09:36:18;4.20;;;1.95;;
52534;SDS011;38443;53.164;5.802;2022-08-20T09:38:53;4.70;;;2.38;;
52534;SDS011;38443;53.164;5.802;2022-08-20T09:41:18;7.80;;;2.10;;
52534;SDS011;38443;53.164;5.802;2022-08-20T09:43:44;6.63;;;2.50;;
52534;SDS011;38443;53.164;5.802;2022-08-20T09:46:09;6.95;;;2.33;;
52534;SDS011;38443;53.164;5.802;2022-08-20T09:48:35;8.45;;;2.65;;
52534;SDS011;38443;53.164;5.802;2022-08-20T09:51:00;5.82;;;2.53;;
52534;SDS011;38443;53.164;5.802;2022-08-20T09:53:26;6.32;;;2.00;;
52534;SDS011;38443;53.164;5.802;2022-08-20T09:55:53;6.60;;;2.20;;
52534;SDS011;38443;53.164;5.802;2022-08-20T09:58:24;7.43;;;2.20;;
52534;SDS011;38443;53.164;5.802;2022-08-20T10:01:00;6.65;;;3.30;;
52534;SDS011;38443;53.164;5.802;2022-08-20T10:03:30;5.80;;;2.53;;
52534;SDS011;38443;53.164;5.802;2022-08-20T10:05:56;8.25;;;2.80;;
52534;SDS011;38443;53.164;5.802;2022-08-20T10:08:21;7.47;;;2.80;;
52534;SDS011;38443;53.164;5.802;2022-08-20T10:10:46;6.45;;;2.67;;
52534;SDS011;38443;53.164;5.802;2022-08-20T10:13:12;6.82;;;2.55;;
52534;SDS011;38443;53.164;5.802;2022-08-20T10:15:37;9.32;;;2.65;;
52534;SDS011;38443;53.164;5.802;2022-08-20T10:18:03;6.15;;;2.03;;
52534;SDS011;38443;53.164;5.802;2022-08-20T10:20:30;9.45;;;2.42;;
52534;SDS011;38443;53.164;5.802;2022-08-20T10:22:55;8.93;;;3.35;;
52534;SDS011;38443;53.164;5.802;2022-08-20T10:25:20;8.88;;;2.90;;
52534;SDS011;38443;53.164;5.802;2022-08-20T10:27:46;5.68;;;2.45;;
52534;SDS011;38443;53.164;5.802;2022-08-20T10:30:12;6.43;;;2.20;;
52534;SDS011;38443;53.164;5.802;2022-08-20T10:32:37;5.72;;;2.50;;
52534;SDS011;38443;53.164;5.802;2022-08-20T10:35:02;6.22;;;2.30;;
52534;SDS011;38443;53.164;5.802;2022-08-20T10:37:28;6.25;;;2.42;;
52534;SDS011;38443;53.164;5.802;2022-08-20T10:39:54;5.90;;;2.17;;
52534;SDS011;38443;53.164;5.802;2022-08-20T10:42:20;5.55;;;2.55;;
52534;SDS011;38443;53.164;5.802;2022-08-20T10:44:46;5.70;;;2.45;;
52534;SDS011;38443;53.164;5.802;2022-08-20T10:47:12;8.38;;;2.80;;
52534;SDS011;38443;53.164;5.802;2022-08-20T10:49:40;9.63;;;3.28;;
52534;SDS011;38443;53.164;5.802;2022-08-20T10:52:05;5.78;;;2.50;;
52534;SDS011;38443;53.164;5.802;2022-08-20T10:54:31;15.10;;;2.78;;
52534;SDS011;38443;53.164;5.802;2022-08-20T10:57:00;3.88;;;2.28;;
52534;SDS011;38443;53.164;5.802;2022-08-20T10:59:26;4.32;;;2.10;;
52534;SDS011;38443;53.164;5.802;2022-08-20T11:01:52;3.80;;;2.00;;
52534;SDS011;38443;53.164;5.802;2022-08-20T11:04:17;6.47;;;2.20;;
52534;SDS011;38443;53.164;5.802;2022-08-20T11:06:42;5.20;;;2.50;;
52534;SDS011;38443;53.164;5.802;2022-08-20T11:09:08;4.82;;;2.50;;
52534;SDS011;38443;53.164;5.802;2022-08-20T11:11:33;4.85;;;2.17;;
52534;SDS011;38443;53.164;5.802;2022-08-20T11:13:58;5.75;;;2.83;;
52534;SDS011;38443;53.164;5.802;2022-08-20T11:16:24;6.05;;;2.25;;
52534;SDS011;38443;53.164;5.802;2022-08-20T11:18:49;6.35;;;2.55;;
52534;SDS011;38443;53.164;5.802;2022-08-20T11:21:14;5.32;;;2.33;;
52534;SDS011;38443;53.164;5.802;2022-08-20T11:23:40;8.00;;;2.65;;
52534;SDS011;38443;53.164;5.802;2022-08-20T11:26:05;5.65;;;2.47;;
52534;SDS011;38443;53.164;5.802;2022-08-20T11:28:31;9.52;;;2.90;;
52534;SDS011;38443;53.164;5.802;2022-08-20T11:30:57;6.07;;;2.90;;
52534;SDS011;38443;53.164;5.802;2022-08-20T11:33:23;7.97;;;2.95;;
52534;SDS011;38443;53.164;5.802;2022-08-20T11:35:48;5.13;;;2.45;;
52534;SDS011;38443;53.164;5.802;2022-08-20T11:38:14;5.20;;;2.40;;
52534;SDS011;38443;53.164;5.802;2022-08-20T11:40:39;8.23;;;3.13;;
52534;SDS011;38443;53.164;5.802;2022-08-20T11:43:04;7.78;;;2.92;;
52534;SDS011;38443;53.164;5.802;2022-08-20T11:45:30;11.45;;;2.97;;
52534;SDS011;38443;53.164;5.802;2022-08-20T11:47:55;4.35;;;2.08;;
52534;SDS011;38443;53.164;5.802;2022-08-20T11:50:21;8.32;;;2.83;;
52534;SDS011;38443;53.164;5.802;2022-08-20T11:52:46;7.00;;;2.47;;
52534;SDS011;38443;53.164;5.802;2022-08-20T11:55:13;7.80;;;2.67;;
52534;SDS011;38443;53.164;5.802;2022-08-20T11:57:41;6.35;;;2.40;;
52534;SDS011;38443;53.164;5.802;2022-08-20T12:00:11;6.70;;;2.95;;
52534;SDS011;38443;53.164;5.802;2022-08-20T12:02:48;10.68;;;3.03;;
52534;SDS011;38443;53.164;5.802;2022-08-20T12:05:15;6.38;;;2.75;;
52534;SDS011;38443;53.164;5.802;2022-08-20T12:07:42;5.43;;;2.05;;
52534;SDS011;38443;53.164;5.802;2022-08-20T12:10:07;9.63;;;2.72;;
52534;SDS011;38443;53.164;5.802;2022-08-20T12:12:34;6.57;;;2.40;;
52534;SDS011;38443;53.164;5.802;2022-08-20T12:15:00;3.70;;;1.85;;
52534;SDS011;38443;53.164;5.802;2022-08-20T12:17:27;5.65;;;2.33;;
52534;SDS011;38443;53.164;5.802;2022-08-20T12:19:54;5.50;;;2.05;;
52534;SDS011;38443;53.164;5.802;2022-08-20T12:22:22;5.38;;;2.13;;
52534;SDS011;38443;53.164;5.802;2022-08-20T12:24:48;6.35;;;2.08;;
52534;SDS011;38443;53.164;5.802;2022-08-20T12:29:45;4.97;;;2.22;;
52534;SDS011;38443;53.164;5.802;2022-08-20T12:32:12;5.88;;;2.20;;
52534;SDS011;38443;53.164;5.802;2022-08-20T12:34:39;4.63;;;2.25;;
52534;SDS011;38443;53.164;5.802;2022-08-20T12:37:07;5.03;;;2.30;;
52534;SDS011;38443;53.164;5.802;2022-08-20T12:39:36;4.45;;;1.95;;
52534;SDS011;38443;53.164;5.802;2022-08-20T12:42:02;6.43;;;2.28;;
52534;SDS011;38443;53.164;5.802;2022-08-20T12:44:28;4.55;;;2.25;;
52534;SDS011;38443;53.164;5.802;2022-08-20T12:47:04;6.53;;;2.45;;
52534;SDS011;38443;53.164;5.802;2022-08-20T12:49:37;3.78;;;2.10;;
52534;SDS011;38443;53.164;5.802;2022-08-20T12:52:05;6.00;;;2.13;;
52534;SDS011;38443;53.164;5.802;2022-08-20T12:54:32;6.68;;;2.38;;
52534;SDS011;38443;53.164;5.802;2022-08-20T12:56:57;6.15;;;2.30;;
52534;SDS011;38443;53.164;5.802;2022-08-20T12:59:23;4.03;;;1.85;;
52534;SDS011;38443;53.164;5.802;2022-08-20T13:01:49;7.25;;;2.25;;
52534;SDS011;38443;53.164;5.802;2022-08-20T13:04:15;3.55;;;1.83;;
52534;SDS011;38443;53.164;5.802;2022-08-20T13:06:40;5.30;;;2.10;;
52534;SDS011;38443;53.164;5.802;2022-08-20T13:09:06;6.07;;;2.67;;
52534;SDS011;38443;53.164;5.802;2022-08-20T13:11:31;6.53;;;2.20;;
52534;SDS011;38443;53.164;5.802;2022-08-20T13:13:57;4.70;;;1.90;;
52534;SDS011;38443;53.164;5.802;2022-08-20T13:16:23;4.60;;;2.40;;
52534;SDS011;38443;53.164;5.802;2022-08-20T13:18:48;5.05;;;2.38;;
52534;SDS011;38443;53.164;5.802;2022-08-20T13:21:13;4.68;;;2.50;;
52534;SDS011;38443;53.164;5.802;2022-08-20T13:23:39;5.15;;;2.47;;
52534;SDS011;38443;53.164;5.802;2022-08-20T13:26:05;3.13;;;2.08;;
52534;SDS011;38443;53.164;5.802;2022-08-20T13:28:30;5.45;;;2.10;;
52534;SDS011;38443;53.164;5.802;2022-08-20T13:30:56;4.60;;;2.15;;
52534;SDS011;38443;53.164;5.802;2022-08-20T13:33:22;5.05;;;2.22;;
52534;SDS011;38443;53.164;5.802;2022-08-20T13:35:49;6.38;;;2.30;;
52534;SDS011;38443;53.164;5.802;2022-08-20T13:38:14;4.38;;;2.10;;
52534;SDS011;38443;53.164;5.802;2022-08-20T13:40:39;5.95;;;2.35;;
52534;SDS011;38443;53.164;5.802;2022-08-20T13:43:05;4.22;;;2.15;;
52534;SDS011;38443;53.164;5.802;2022-08-20T13:45:30;4.97;;;2.30;;
52534;SDS011;38443;53.164;5.802;2022-08-20T13:47:56;4.93;;;2.15;;
52534;SDS011;38443;53.164;5.802;2022-08-20T13:50:22;4.53;;;2.47;;
52534;SDS011;38443;53.164;5.802;2022-08-20T13:52:48;5.85;;;2.58;;
52534;SDS011;38443;53.164;5.802;2022-08-20T13:55:16;5.93;;;2.70;;
52534;SDS011;38443;53.164;5.802;2022-08-20T13:57:42;16.17;;;2.95;;
52534;SDS011;38443;53.164;5.802;2022-08-20T14:00:10;6.43;;;2.55;;
52534;SDS011;38443;53.164;5.802;2022-08-20T14:02:38;4.43;;;2.15;;
52534;SDS011;38443;53.164;5.802;2022-08-20T14:05:04;5.20;;;2.58;;
52534;SDS011;38443;53.164;5.802;2022-08-20T14:07:30;6.15;;;2.30;;
52534;SDS011;38443;53.164;5.802;2022-08-20T14:09:56;8.65;;;3.15;;
52534;SDS011;38443;53.164;5.802;2022-08-20T14:12:24;5.50;;;2.50;;
52534;SDS011;38443;53.164;5.802;2022-08-20T14:14:51;9.20;;;2.72;;
52534;SDS011;38443;53.164;5.802;2022-08-20T14:17:22;6.55;;;2.88;;
52534;SDS011;38443;53.164;5.802;2022-08-20T14:19:53;6.57;;;2.45;;
52534;SDS011;38443;53.164;5.802;2022-08-20T14:22:23;6.82;;;3.00;;
52534;SDS011;38443;53.164;5.802;2022-08-20T14:24:49;5.88;;;2.45;;
52534;SDS011;38443;53.164;5.802;2022-08-20T14:27:15;5.07;;;2.50;;
52534;SDS011;38443;53.164;5.802;2022-08-20T14:29:43;9.32;;;2.85;;
52534;SDS011;38443;53.164;5.802;2022-08-20T14:32:10;6.22;;;2.45;;
52534;SDS011;38443;53.164;5.802;2022-08-20T14:34:36;10.63;;;2.80;;
52534;SDS011;38443;53.164;5.802;2022-08-20T14:37:09;6.63;;;2.60;;
52534;SDS011;38443;53.164;5.802;2022-08-20T14:39:35;7.50;;;2.78;;
52534;SDS011;38443;53.164;5.802;2022-08-20T14:42:00;8.73;;;3.03;;
52534;SDS011;38443;53.164;5.802;2022-08-20T14:44:25;9.55;;;3.00;;
52534;SDS011;38443;53.164;5.802;2022-08-20T14:46:53;5.72;;;2.25;;
52534;SDS011;38443;53.164;5.802;2022-08-20T14:49:18;4.55;;;2.53;;
52534;SDS011;38443;53.164;5.802;2022-08-20T14:51:44;12.32;;;3.92;;
52534;SDS011;38443;53.164;5.802;2022-08-20T14:54:09;5.90;;;2.70;;
52534;SDS011;38443;53.164;5.802;2022-08-20T14:56:34;7.38;;;2.67;;
52534;SDS011;38443;53.164;5.802;2022-08-20T14:59:00;11.32;;;3.00;;
52534;SDS011;38443;53.164;5.802;2022-08-20T15:01:25;8.65;;;3.28;;